San Francisco, California
Current Conditions -  °F | °C
As of 10:56 PM on Friday 24 Oct 2014 (Local Time) from KSFO Reporting Station
Scattered Clouds Scattered Clouds  
Wind Chill: 68°   Ceiling: Unl
Heat Index: 68°   Visibility: 10mi
Dew Point: 56°   Wind: 9mph
Humidity: 65%   Direction: 180°S
Pressure: 29.93"   Gusts: NA
Location:  37.78°N, 122.42°W
Report Text: KSFO 250556Z 18008KT 10SM FEW017 SCT170 20/13 A2993 RMK AO2 SLP134 T02000133 10211 20189 53010 $
Loading
Personal Weather Stations






























Interactive Weather Map New forecast layout! Learn more

10-Day Weather Forecast

Advertisements
Track Severe Weather on mobile